sensor_id;sensor_type;location;lat;lon;timestamp;P1;durP1;ratioP1;P2;durP2;ratioP2
17818;SDS011;9034;50.284;19.310;2023-10-13T00:00:49;32.08;;;17.17;;
17818;SDS011;9034;50.284;19.310;2023-10-13T00:01:59;33.13;;;16.95;;
17818;SDS011;9034;50.284;19.310;2023-10-13T00:03:03;27.73;;;17.80;;
17818;SDS011;9034;50.284;19.310;2023-10-13T00:04:07;27.73;;;15.85;;
17818;SDS011;9034;50.284;19.310;2023-10-13T00:05:10;33.65;;;16.75;;
17818;SDS011;9034;50.284;19.310;2023-10-13T00:06:13;28.77;;;16.73;;
17818;SDS011;9034;50.284;19.310;2023-10-13T00:07:17;27.65;;;16.08;;
17818;SDS011;9034;50.284;19.310;2023-10-13T00:08:20;26.50;;;15.57;;
17818;SDS011;9034;50.284;19.310;2023-10-13T00:09:22;27.90;;;16.83;;
17818;SDS011;9034;50.284;19.310;2023-10-13T00:10:27;24.80;;;15.70;;
17818;SDS011;9034;50.284;19.310;2023-10-13T00:11:29;27.80;;;16.30;;
17818;SDS011;9034;50.284;19.310;2023-10-13T00:12:32;29.40;;;16.83;;
17818;SDS011;9034;50.284;19.310;2023-10-13T00:13:33;24.65;;;16.30;;
17818;SDS011;9034;50.284;19.310;2023-10-13T00:14:44;32.13;;;16.80;;
17818;SDS011;9034;50.284;19.310;2023-10-13T00:15:48;28.00;;;16.52;;
17818;SDS011;9034;50.284;19.310;2023-10-13T00:16:59;27.02;;;16.17;;
17818;SDS011;9034;50.284;19.310;2023-10-13T00:18:05;24.40;;;16.52;;
17818;SDS011;9034;50.284;19.310;2023-10-13T00:19:13;25.60;;;15.88;;
17818;SDS011;9034;50.284;19.310;2023-10-13T00:20:15;27.40;;;16.17;;
17818;SDS011;9034;50.284;19.310;2023-10-13T00:21:29;24.75;;;15.80;;
17818;SDS011;9034;50.284;19.310;2023-10-13T00:22:33;28.10;;;16.13;;
17818;SDS011;9034;50.284;19.310;2023-10-13T00:23:37;25.42;;;16.17;;
17818;SDS011;9034;50.284;19.310;2023-10-13T00:24:40;26.52;;;16.70;;
17818;SDS011;9034;50.284;19.310;2023-10-13T00:25:47;29.40;;;18.05;;
17818;SDS011;9034;50.284;19.310;2023-10-13T00:26:51;27.35;;;16.42;;
17818;SDS011;9034;50.284;19.310;2023-10-13T00:27:55;26.95;;;15.70;;
17818;SDS011;9034;50.284;19.310;2023-10-13T00:28:59;26.05;;;16.27;;
17818;SDS011;9034;50.284;19.310;2023-10-13T00:30:10;25.27;;;16.95;;
17818;SDS011;9034;50.284;19.310;2023-10-13T00:31:25;30.77;;;17.02;;
17818;SDS011;9034;50.284;19.310;2023-10-13T00:32:31;24.67;;;16.17;;
17818;SDS011;9034;50.284;19.310;2023-10-13T00:33:33;26.83;;;16.50;;
17818;SDS011;9034;50.284;19.310;2023-10-13T00:34:37;27.02;;;16.40;;
17818;SDS011;9034;50.284;19.310;2023-10-13T00:35:42;28.45;;;16.25;;
17818;SDS011;9034;50.284;19.310;2023-10-13T00:36:44;27.15;;;16.33;;
17818;SDS011;9034;50.284;19.310;2023-10-13T00:37:50;31.02;;;16.70;;
17818;SDS011;9034;50.284;19.310;2023-10-13T00:38:54;30.33;;;17.20;;
17818;SDS011;9034;50.284;19.310;2023-10-13T00:39:57;32.45;;;16.58;;
17818;SDS011;9034;50.284;19.310;2023-10-13T00:41:02;33.00;;;16.92;;
17818;SDS011;9034;50.284;19.310;2023-10-13T00:42:15;40.13;;;18.15;;
17818;SDS011;9034;50.284;19.310;2023-10-13T00:43:22;31.65;;;16.88;;
17818;SDS011;9034;50.284;19.310;2023-10-13T00:44:35;28.63;;;16.65;;
17818;SDS011;9034;50.284;19.310;2023-10-13T00:45:43;234.88;;;29.23;;
17818;SDS011;9034;50.284;19.310;2023-10-13T00:46:50;420.65;;;39.42;;
17818;SDS011;9034;50.284;19.310;2023-10-13T00:47:56;54.80;;;16.95;;
17818;SDS011;9034;50.284;19.310;2023-10-13T00:49:03;25.33;;;15.48;;
17818;SDS011;9034;50.284;19.310;2023-10-13T00:50:06;31.50;;;16.25;;
17818;SDS011;9034;50.284;19.310;2023-10-13T00:51:18;23.27;;;16.08;;
17818;SDS011;9034;50.284;19.310;2023-10-13T00:52:34;29.63;;;17.05;;
17818;SDS011;9034;50.284;19.310;2023-10-13T00:53:37;26.67;;;16.38;;
17818;SDS011;9034;50.284;19.310;2023-10-13T00:54:42;27.88;;;16.95;;
17818;SDS011;9034;50.284;19.310;2023-10-13T00:55:47;24.05;;;16.70;;
17818;SDS011;9034;50.284;19.310;2023-10-13T00:56:49;31.17;;;18.40;;
17818;SDS011;9034;50.284;19.310;2023-10-13T00:57:59;30.08;;;17.10;;
17818;SDS011;9034;50.284;19.310;2023-10-13T00:59:04;36.92;;;17.83;;
17818;SDS011;9034;50.284;19.310;2023-10-13T01:00:07;29.67;;;16.88;;
17818;SDS011;9034;50.284;19.310;2023-10-13T01:01:14;29.58;;;16.05;;
17818;SDS011;9034;50.284;19.310;2023-10-13T01:02:21;78.28;;;20.35;;
17818;SDS011;9034;50.284;19.310;2023-10-13T01:03:40;218.10;;;29.60;;
17818;SDS011;9034;50.284;19.310;2023-10-13T01:04:42;141.23;;;23.30;;
17818;SDS011;9034;50.284;19.310;2023-10-13T01:05:48;26.98;;;15.43;;
17818;SDS011;9034;50.284;19.310;2023-10-13T01:06:55;39.60;;;16.45;;
17818;SDS011;9034;50.284;19.310;2023-10-13T01:08:00;32.15;;;18.98;;
17818;SDS011;9034;50.284;19.310;2023-10-13T01:09:03;40.45;;;20.30;;
17818;SDS011;9034;50.284;19.310;2023-10-13T01:10:12;43.30;;;19.20;;
17818;SDS011;9034;50.284;19.310;2023-10-13T01:11:17;55.65;;;18.45;;
17818;SDS011;9034;50.284;19.310;2023-10-13T01:12:19;54.92;;;19.25;;
17818;SDS011;9034;50.284;19.310;2023-10-13T01:13:21;119.10;;;22.73;;
17818;SDS011;9034;50.284;19.310;2023-10-13T01:14:23;38.00;;;18.73;;
17818;SDS011;9034;50.284;19.310;2023-10-13T01:15:29;40.42;;;16.73;;
17818;SDS011;9034;50.284;19.310;2023-10-13T01:16:32;55.25;;;19.25;;
17818;SDS011;9034;50.284;19.310;2023-10-13T01:17:36;42.53;;;16.38;;
17818;SDS011;9034;50.284;19.310;2023-10-13T01:18:38;22.33;;;15.18;;
17818;SDS011;9034;50.284;19.310;2023-10-13T01:19:50;20.45;;;12.95;;
17818;SDS011;9034;50.284;19.310;2023-10-13T01:21:00;151.52;;;19.92;;
17818;SDS011;9034;50.284;19.310;2023-10-13T01:22:02;258.25;;;27.40;;
17818;SDS011;9034;50.284;19.310;2023-10-13T01:23:10;110.65;;;19.95;;
17818;SDS011;9034;50.284;19.310;2023-10-13T01:24:19;209.10;;;26.75;;
17818;SDS011;9034;50.284;19.310;2023-10-13T01:25:27;40.17;;;15.35;;
17818;SDS011;9034;50.284;19.310;2023-10-13T01:26:30;45.92;;;17.20;;
17818;SDS011;9034;50.284;19.310;2023-10-13T01:27:37;84.68;;;17.63;;
17818;SDS011;9034;50.284;19.310;2023-10-13T01:28:39;233.10;;;26.23;;
17818;SDS011;9034;50.284;19.310;2023-10-13T01:29:47;191.05;;;25.42;;
17818;SDS011;9034;50.284;19.310;2023-10-13T01:30:52;147.38;;;22.85;;
17818;SDS011;9034;50.284;19.310;2023-10-13T01:31:54;29.23;;;15.88;;
17818;SDS011;9034;50.284;19.310;2023-10-13T01:32:57;138.15;;;21.70;;
17818;SDS011;9034;50.284;19.310;2023-10-13T01:34:02;135.75;;;17.77;;
17818;SDS011;9034;50.284;19.310;2023-10-13T01:35:05;64.28;;;14.98;;
17818;SDS011;9034;50.284;19.310;2023-10-13T01:36:08;39.20;;;14.20;;
17818;SDS011;9034;50.284;19.310;2023-10-13T01:37:10;27.42;;;13.05;;
17818;SDS011;9034;50.284;19.310;2023-10-13T01:38:14;15.93;;;12.57;;
17818;SDS011;9034;50.284;19.310;2023-10-13T01:39:16;31.65;;;12.80;;
17818;SDS011;9034;50.284;19.310;2023-10-13T01:40:18;30.05;;;13.65;;
17818;SDS011;9034;50.284;19.310;2023-10-13T01:41:22;27.17;;;12.23;;
17818;SDS011;9034;50.284;19.310;2023-10-13T01:42:24;16.75;;;12.45;;
17818;SDS011;9034;50.284;19.310;2023-10-13T01:43:27;37.67;;;14.50;;
17818;SDS011;9034;50.284;19.310;2023-10-13T01:44:29;50.38;;;14.70;;
17818;SDS011;9034;50.284;19.310;2023-10-13T01:45:32;129.02;;;20.67;;
17818;SDS011;9034;50.284;19.310;2023-10-13T01:46:34;98.70;;;16.92;;
17818;SDS011;9034;50.284;19.310;2023-10-13T01:47:38;163.88;;;19.33;;
17818;SDS011;9034;50.284;19.310;2023-10-13T01:48:42;157.27;;;18.05;;
17818;SDS011;9034;50.284;19.310;2023-10-13T01:49:45;65.72;;;14.20;;
17818;SDS011;9034;50.284;19.310;2023-10-13T01:50:49;112.22;;;18.45;;
17818;SDS011;9034;50.284;19.310;2023-10-13T01:51:58;69.88;;;14.25;;
17818;SDS011;9034;50.284;19.310;2023-10-13T01:53:04;67.60;;;14.15;;
17818;SDS011;9034;50.284;19.310;2023-10-13T01:54:14;41.20;;;12.68;;
17818;SDS011;9034;50.284;19.310;2023-10-13T01:55:19;30.75;;;11.90;;
17818;SDS011;9034;50.284;19.310;2023-10-13T01:56:22;37.70;;;12.20;;
17818;SDS011;9034;50.284;19.310;2023-10-13T01:57:24;65.93;;;14.82;;
17818;SDS011;9034;50.284;19.310;2023-10-13T01:58:26;23.13;;;11.65;;
17818;SDS011;9034;50.284;19.310;2023-10-13T01:59:30;31.13;;;12.13;;
17818;SDS011;9034;50.284;19.310;2023-10-13T02:00:32;90.32;;;14.98;;
17818;SDS011;9034;50.284;19.310;2023-10-13T02:01:41;266.02;;;26.83;;
17818;SDS011;9034;50.284;19.310;2023-10-13T02:02:44;50.35;;;11.38;;
17818;SDS011;9034;50.284;19.310;2023-10-13T02:03:46;16.58;;;10.38;;
17818;SDS011;9034;50.284;19.310;2023-10-13T02:04:50;32.67;;;12.45;;
17818;SDS011;9034;50.284;19.310;2023-10-13T02:05:58;15.73;;;10.50;;
17818;SDS011;9034;50.284;19.310;2023-10-13T02:07:05;19.20;;;10.75;;
17818;SDS011;9034;50.284;19.310;2023-10-13T02:08:10;22.23;;;13.00;;
17818;SDS011;9034;50.284;19.310;2023-10-13T02:09:20;15.30;;;10.27;;
17818;SDS011;9034;50.284;19.310;2023-10-13T02:10:27;15.93;;;10.20;;
17818;SDS011;9034;50.284;19.310;2023-10-13T02:11:31;24.23;;;12.02;;
17818;SDS011;9034;50.284;19.310;2023-10-13T02:12:34;23.85;;;11.55;;
17818;SDS011;9034;50.284;19.310;2023-10-13T02:13:45;20.95;;;11.45;;
17818;SDS011;9034;50.284;19.310;2023-10-13T02:14:52;19.60;;;12.18;;
17818;SDS011;9034;50.284;19.310;2023-10-13T02:15:55;27.80;;;12.63;;
17818;SDS011;9034;50.284;19.310;2023-10-13T02:18:43;68.82;;;12.80;;
17818;SDS011;9034;50.284;19.310;2023-10-13T02:19:46;95.85;;;12.90;;
17818;SDS011;9034;50.284;19.310;2023-10-13T02:20:48;79.78;;;12.30;;
17818;SDS011;9034;50.284;19.310;2023-10-13T02:21:56;111.32;;;14.60;;
17818;SDS011;9034;50.284;19.310;2023-10-13T02:23:01;44.63;;;10.43;;
17818;SDS011;9034;50.284;19.310;2023-10-13T02:24:03;31.55;;;10.75;;
17818;SDS011;9034;50.284;19.310;2023-10-13T02:25:07;34.13;;;8.93;;
17818;SDS011;9034;50.284;19.310;2023-10-13T02:26:20;22.63;;;9.38;;
17818;SDS011;9034;50.284;19.310;2023-10-13T02:27:32;42.97;;;9.80;;
17818;SDS011;9034;50.284;19.310;2023-10-13T02:28:42;17.17;;;9.68;;
17818;SDS011;9034;50.284;19.310;2023-10-13T02:29:45;13.05;;;8.68;;
17818;SDS011;9034;50.284;19.310;2023-10-13T02:30:51;23.52;;;10.25;;
17818;SDS011;9034;50.284;19.310;2023-10-13T02:31:54;62.58;;;11.90;;
17818;SDS011;9034;50.284;19.310;2023-10-13T02:32:57;103.13;;;16.35;;
17818;SDS011;9034;50.284;19.310;2023-10-13T02:34:05;57.65;;;12.32;;
17818;SDS011;9034;50.284;19.310;2023-10-13T02:35:10;142.43;;;17.42;;
17818;SDS011;9034;50.284;19.310;2023-10-13T02:36:17;116.97;;;15.75;;
17818;SDS011;9034;50.284;19.310;2023-10-13T02:37:24;125.38;;;15.57;;
17818;SDS011;9034;50.284;19.310;2023-10-13T02:38:29;82.68;;;13.07;;
17818;SDS011;9034;50.284;19.310;2023-10-13T02:39:36;52.35;;;12.23;;
17818;SDS011;9034;50.284;19.310;2023-10-13T02:40:43;54.38;;;13.98;;
17818;SDS011;9034;50.284;19.310;2023-10-13T02:41:46;38.58;;;13.73;;
17818;SDS011;9034;50.284;19.310;2023-10-13T02:42:50;67.90;;;15.65;;
17818;SDS011;9034;50.284;19.310;2023-10-13T02:43:52;78.90;;;15.02;;
17818;SDS011;9034;50.284;19.310;2023-10-13T02:44:57;63.08;;;12.73;;
17818;SDS011;9034;50.284;19.310;2023-10-13T02:45:59;28.63;;;12.02;;
17818;SDS011;9034;50.284;19.310;2023-10-13T02:47:01;31.27;;;11.82;;
17818;SDS011;9034;50.284;19.310;2023-10-13T02:48:07;41.38;;;11.63;;
17818;SDS011;9034;50.284;19.310;2023-10-13T02:49:14;128.07;;;16.45;;
17818;SDS011;9034;50.284;19.310;2023-10-13T02:50:20;35.80;;;9.63;;
17818;SDS011;9034;50.284;19.310;2023-10-13T02:51:25;50.55;;;11.70;;
17818;SDS011;9034;50.284;19.310;2023-10-13T02:52:35;62.50;;;12.10;;
17818;SDS011;9034;50.284;19.310;2023-10-13T02:53:39;85.93;;;13.07;;
17818;SDS011;9034;50.284;19.310;2023-10-13T02:54:42;39.85;;;10.13;;
17818;SDS011;9034;50.284;19.310;2023-10-13T02:55:51;46.05;;;9.25;;
17818;SDS011;9034;50.284;19.310;2023-10-13T02:56:54;26.90;;;10.48;;
17818;SDS011;9034;50.284;19.310;2023-10-13T02:57:58;15.75;;;9.43;;
17818;SDS011;9034;50.284;19.310;2023-10-13T02:59:01;28.92;;;9.68;;
17818;SDS011;9034;50.284;19.310;2023-10-13T03:00:07;37.40;;;11.43;;
17818;SDS011;9034;50.284;19.310;2023-10-13T03:01:13;23.83;;;11.13;;
17818;SDS011;9034;50.284;19.310;2023-10-13T03:02:19;26.42;;;11.13;;
17818;SDS011;9034;50.284;19.310;2023-10-13T03:03:27;50.80;;;12.45;;
17818;SDS011;9034;50.284;19.310;2023-10-13T03:04:31;34.75;;;11.25;;
17818;SDS011;9034;50.284;19.310;2023-10-13T03:05:34;54.55;;;12.45;;
17818;SDS011;9034;50.284;19.310;2023-10-13T03:06:40;47.20;;;10.48;;
17818;SDS011;9034;50.284;19.310;2023-10-13T03:07:43;47.05;;;10.05;;
17818;SDS011;9034;50.284;19.310;2023-10-13T03:08:45;32.22;;;8.40;;
17818;SDS011;9034;50.284;19.310;2023-10-13T03:09:49;34.35;;;11.90;;
17818;SDS011;9034;50.284;19.310;2023-10-13T03:10:54;28.77;;;8.35;;
17818;SDS011;9034;50.284;19.310;2023-10-13T03:11:56;51.30;;;11.52;;
17818;SDS011;9034;50.284;19.310;2023-10-13T03:12:59;14.45;;;7.40;;
17818;SDS011;9034;50.284;19.310;2023-10-13T03:14:01;32.72;;;8.75;;
17818;SDS011;9034;50.284;19.310;2023-10-13T03:15:08;36.10;;;7.90;;
17818;SDS011;9034;50.284;19.310;2023-10-13T03:16:15;16.80;;;7.60;;
17818;SDS011;9034;50.284;19.310;2023-10-13T03:17:17;26.15;;;10.63;;
17818;SDS011;9034;50.284;19.310;2023-10-13T03:18:24;41.78;;;9.35;;
17818;SDS011;9034;50.284;19.310;2023-10-13T03:19:27;40.95;;;10.07;;
17818;SDS011;9034;50.284;19.310;2023-10-13T03:20:36;32.97;;;9.68;;
17818;SDS011;9034;50.284;19.310;2023-10-13T03:21:43;63.10;;;10.88;;
17818;SDS011;9034;50.284;19.310;2023-10-13T03:22:48;50.38;;;9.88;;
17818;SDS011;9034;50.284;19.310;2023-10-13T03:23:54;66.38;;;11.93;;
17818;SDS011;9034;50.284;19.310;2023-10-13T03:24:57;98.53;;;13.73;;
17818;SDS011;9034;50.284;19.310;2023-10-13T03:26:02;99.95;;;16.50;;
17818;SDS011;9034;50.284;19.310;2023-10-13T03:27:12;98.15;;;14.88;;
17818;SDS011;9034;50.284;19.310;2023-10-13T03:28:17;84.55;;;12.05;;
17818;SDS011;9034;50.284;19.310;2023-10-13T03:29:25;57.78;;;11.90;;
17818;SDS011;9034;50.284;19.310;2023-10-13T03:30:32;40.45;;;14.63;;
17818;SDS011;9034;50.284;19.310;2023-10-13T03:31:37;24.33;;;12.25;;
17818;SDS011;9034;50.284;19.310;2023-10-13T03:32:40;75.78;;;17.70;;
17818;SDS011;9034;50.284;19.310;2023-10-13T03:33:46;69.43;;;16.48;;
17818;SDS011;9034;50.284;19.310;2023-10-13T03:34:48;35.47;;;17.55;;
17818;SDS011;9034;50.284;19.310;2023-10-13T03:36:13;34.80;;;16.65;;
17818;SDS011;9034;50.284;19.310;2023-10-13T03:37:35;30.17;;;16.65;;
17818;SDS011;9034;50.284;19.310;2023-10-13T03:38:40;23.40;;;13.57;;
17818;SDS011;9034;50.284;19.310;2023-10-13T03:39:42;20.00;;;13.07;;
17818;SDS011;9034;50.284;19.310;2023-10-13T03:40:47;22.80;;;14.75;;
17818;SDS011;9034;50.284;19.310;2023-10-13T03:41:58;28.08;;;15.38;;
17818;SDS011;9034;50.284;19.310;2023-10-13T03:43:02;16.67;;;10.98;;
17818;SDS011;9034;50.284;19.310;2023-10-13T03:44:06;21.02;;;12.00;;
17818;SDS011;9034;50.284;19.310;2023-10-13T03:45:16;18.83;;;12.18;;
17818;SDS011;9034;50.284;19.310;2023-10-13T03:46:20;19.90;;;12.30;;
17818;SDS011;9034;50.284;19.310;2023-10-13T03:47:23;20.17;;;11.02;;
17818;SDS011;9034;50.284;19.310;2023-10-13T03:48:28;47.65;;;15.80;;
17818;SDS011;9034;50.284;19.310;2023-10-13T03:49:31;46.78;;;14.50;;
17818;SDS011;9034;50.284;19.310;2023-10-13T03:50:39;46.03;;;14.35;;
17818;SDS011;9034;50.284;19.310;2023-10-13T03:51:49;29.02;;;13.48;;
17818;SDS011;9034;50.284;19.310;2023-10-13T03:52:55;21.10;;;11.18;;
17818;SDS011;9034;50.284;19.310;2023-10-13T03:53:59;17.08;;;11.43;;
17818;SDS011;9034;50.284;19.310;2023-10-13T03:55:09;17.20;;;11.68;;
17818;SDS011;9034;50.284;19.310;2023-10-13T03:56:19;18.90;;;12.43;;
17818;SDS011;9034;50.284;19.310;2023-10-13T03:57:42;14.60;;;10.68;;
17818;SDS011;9034;50.284;19.310;2023-10-13T03:58:47;16.83;;;11.32;;
17818;SDS011;9034;50.284;19.310;2023-10-13T03:59:50;28.25;;;13.77;;
17818;SDS011;9034;50.284;19.310;2023-10-13T04:00:53;45.75;;;14.85;;
17818;SDS011;9034;50.284;19.310;2023-10-13T04:01:55;23.35;;;12.95;;
17818;SDS011;9034;50.284;19.310;2023-10-13T04:03:03;51.95;;;13.23;;
17818;SDS011;9034;50.284;19.310;2023-10-13T04:04:11;42.88;;;15.68;;
17818;SDS011;9034;50.284;19.310;2023-10-13T04:05:16;43.75;;;24.85;;
17818;SDS011;9034;50.284;19.310;2023-10-13T04:06:35;42.28;;;25.98;;
17818;SDS011;9034;50.284;19.310;2023-10-13T04:07:53;62.05;;;34.00;;
17818;SDS011;9034;50.284;19.310;2023-10-13T04:09:13;53.22;;;26.30;;
17818;SDS011;9034;50.284;19.310;2023-10-13T04:10:34;35.78;;;21.55;;
17818;SDS011;9034;50.284;19.310;2023-10-13T04:12:00;38.13;;;20.48;;
17818;SDS011;9034;50.284;19.310;2023-10-13T04:13:45;27.35;;;14.98;;
17818;SDS011;9034;50.284;19.310;2023-10-13T04:15:06;21.00;;;13.15;;
17818;SDS011;9034;50.284;19.310;2023-10-13T04:16:25;24.23;;;15.50;;
17818;SDS011;9034;50.284;19.310;2023-10-13T04:17:36;29.73;;;16.33;;
17818;SDS011;9034;50.284;19.310;2023-10-13T04:18:46;25.15;;;17.05;;
17818;SDS011;9034;50.284;19.310;2023-10-13T04:20:05;48.25;;;23.73;;
17818;SDS011;9034;50.284;19.310;2023-10-13T04:21:14;43.25;;;21.77;;
17818;SDS011;9034;50.284;19.310;2023-10-13T04:22:38;39.97;;;21.95;;
17818;SDS011;9034;50.284;19.310;2023-10-13T04:23:56;34.60;;;19.90;;
17818;SDS011;9034;50.284;19.310;2023-10-13T04:25:25;36.55;;;20.02;;
17818;SDS011;9034;50.284;19.310;2023-10-13T04:26:37;45.38;;;24.55;;
17818;SDS011;9034;50.284;19.310;2023-10-13T04:27:59;42.78;;;22.52;;
17818;SDS011;9034;50.284;19.310;2023-10-13T04:29:19;41.40;;;23.38;;
17818;SDS011;9034;50.284;19.310;2023-10-13T04:30:47;37.88;;;22.13;;
17818;SDS011;9034;50.284;19.310;2023-10-13T04:32:00;48.10;;;25.60;;
17818;SDS011;9034;50.284;19.310;2023-10-13T04:33:04;48.35;;;23.65;;
17818;SDS011;9034;50.284;19.310;2023-10-13T04:34:37;57.25;;;30.13;;
17818;SDS011;9034;50.284;19.310;2023-10-13T04:35:41;52.78;;;27.02;;
17818;SDS011;9034;50.284;19.310;2023-10-13T04:36:49;38.42;;;20.02;;
17818;SDS011;9034;50.284;19.310;2023-10-13T04:37:58;42.22;;;24.45;;
17818;SDS011;9034;50.284;19.310;2023-10-13T04:39:02;34.85;;;18.92;;
17818;SDS011;9034;50.284;19.310;2023-10-13T04:40:11;42.47;;;20.55;;
17818;SDS011;9034;50.284;19.310;2023-10-13T04:41:13;33.45;;;19.52;;
17818;SDS011;9034;50.284;19.310;2023-10-13T04:42:24;42.47;;;22.13;;
17818;SDS011;9034;50.284;19.310;2023-10-13T04:43:40;42.75;;;23.98;;
17818;SDS011;9034;50.284;19.310;2023-10-13T04:44:58;50.10;;;26.90;;
17818;SDS011;9034;50.284;19.310;2023-10-13T04:46:17;38.00;;;21.85;;
17818;SDS011;9034;50.284;19.310;2023-10-13T04:47:37;52.85;;;25.52;;
17818;SDS011;9034;50.284;19.310;2023-10-13T04:48:58;36.75;;;19.33;;
17818;SDS011;9034;50.284;19.310;2023-10-13T04:50:11;41.15;;;21.70;;
17818;SDS011;9034;50.284;19.310;2023-10-13T04:51:24;40.10;;;17.90;;
17818;SDS011;9034;50.284;19.310;2023-10-13T04:52:51;45.38;;;23.77;;
17818;SDS011;9034;50.284;19.310;2023-10-13T04:54:04;42.30;;;23.70;;
17818;SDS011;9034;50.284;19.310;2023-10-13T04:55:12;35.13;;;19.73;;
17818;SDS011;9034;50.284;19.310;2023-10-13T04:56:45;43.45;;;21.77;;
17818;SDS011;9034;50.284;19.310;2023-10-13T04:58:21;48.50;;;21.77;;
17818;SDS011;9034;50.284;19.310;2023-10-13T04:59:47;38.08;;;20.83;;
17818;SDS011;9034;50.284;19.310;2023-10-13T05:01:14;38.25;;;20.65;;
17818;SDS011;9034;50.284;19.310;2023-10-13T05:02:34;37.55;;;19.70;;
17818;SDS011;9034;50.284;19.310;2023-10-13T05:03:57;36.90;;;19.92;;
17818;SDS011;9034;50.284;19.310;2023-10-13T05:05:23;40.65;;;23.08;;
17818;SDS011;9034;50.284;19.310;2023-10-13T05:06:47;36.03;;;21.30;;
17818;SDS011;9034;50.284;19.310;2023-10-13T05:08:07;30.42;;;15.18;;
17818;SDS011;9034;50.284;19.310;2023-10-13T05:09:27;44.72;;;24.35;;
17818;SDS011;9034;50.284;19.310;2023-10-13T05:10:47;38.55;;;21.92;;
17818;SDS011;9034;50.284;19.310;2023-10-13T05:12:08;37.70;;;21.27;;
17818;SDS011;9034;50.284;19.310;2023-10-13T05:13:28;42.58;;;22.70;;
17818;SDS011;9034;50.284;19.310;2023-10-13T05:14:49;26.35;;;17.13;;
17818;SDS011;9034;50.284;19.310;2023-10-13T05:16:09;49.15;;;24.92;;
17818;SDS011;9034;50.284;19.310;2023-10-13T05:17:31;199.57;;;74.57;;
17818;SDS011;9034;50.284;19.310;2023-10-13T05:18:51;294.67;;;97.70;;
17818;SDS011;9034;50.284;19.310;2023-10-13T05:20:11;84.30;;;37.97;;
17818;SDS011;9034;50.284;19.310;2023-10-13T05:21:31;127.85;;;49.92;;
17818;SDS011;9034;50.284;19.310;2023-10-13T05:22:52;110.70;;;44.17;;
17818;SDS011;9034;50.284;19.310;2023-10-13T05:24:12;79.55;;;36.13;;
17818;SDS011;9034;50.284;19.310;2023-10-13T05:25:34;104.85;;;43.25;;
17818;SDS011;9034;50.284;19.310;2023-10-13T05:26:55;111.30;;;44.70;;
17818;SDS011;9034;50.284;19.310;2023-10-13T05:28:15;133.60;;;51.55;;
17818;SDS011;9034;50.284;19.310;2023-10-13T05:29:38;126.03;;;47.45;;
17818;SDS011;9034;50.284;19.310;2023-10-13T05:30:59;86.30;;;38.40;;
17818;SDS011;9034;50.284;19.310;2023-10-13T05:32:19;59.03;;;26.05;;
17818;SDS011;9034;50.284;19.310;2023-10-13T05:33:41;49.08;;;24.23;;
17818;SDS011;9034;50.284;19.310;2023-10-13T05:35:02;49.17;;;22.15;;
17818;SDS011;9034;50.284;19.310;2023-10-13T05:36:37;41.88;;;19.35;;
17818;SDS011;9034;50.284;19.310;2023-10-13T05:37:57;48.78;;;23.25;;
17818;SDS011;9034;50.284;19.310;2023-10-13T05:39:18;44.88;;;21.83;;
17818;SDS011;9034;50.284;19.310;2023-10-13T05:40:38;50.85;;;23.73;;
17818;SDS011;9034;50.284;19.310;2023-10-13T05:41:59;41.97;;;23.58;;
17818;SDS011;9034;50.284;19.310;2023-10-13T05:43:19;62.38;;;28.98;;
17818;SDS011;9034;50.284;19.310;2023-10-13T05:44:40;55.35;;;25.67;;
17818;SDS011;9034;50.284;19.310;2023-10-13T05:46:00;48.28;;;25.58;;
17818;SDS011;9034;50.284;19.310;2023-10-13T05:47:22;65.75;;;30.67;;
17818;SDS011;9034;50.284;19.310;2023-10-13T05:48:46;59.80;;;29.95;;
17818;SDS011;9034;50.284;19.310;2023-10-13T05:50:20;93.55;;;38.78;;
17818;SDS011;9034;50.284;19.310;2023-10-13T05:51:46;80.05;;;34.67;;
17818;SDS011;9034;50.284;19.310;2023-10-13T05:52:59;89.60;;;35.88;;
17818;SDS011;9034;50.284;19.310;2023-10-13T05:54:19;77.75;;;36.38;;
17818;SDS011;9034;50.284;19.310;2023-10-13T05:55:40;83.65;;;35.42;;
17818;SDS011;9034;50.284;19.310;2023-10-13T05:57:00;89.97;;;35.63;;
17818;SDS011;9034;50.284;19.310;2023-10-13T05:58:21;53.95;;;28.88;;
17818;SDS011;9034;50.284;19.310;2023-10-13T05:59:41;63.72;;;29.67;;
17818;SDS011;9034;50.284;19.310;2023-10-13T06:01:01;59.47;;;29.10;;
17818;SDS011;9034;50.284;19.310;2023-10-13T06:02:22;63.20;;;27.83;;
17818;SDS011;9034;50.284;19.310;2023-10-13T06:03:43;54.17;;;27.42;;
17818;SDS011;9034;50.284;19.310;2023-10-13T06:05:06;51.88;;;27.13;;
17818;SDS011;9034;50.284;19.310;2023-10-13T06:06:27;38.65;;;20.50;;
17818;SDS011;9034;50.284;19.310;2023-10-13T06:07:47;35.17;;;18.85;;
17818;SDS011;9034;50.284;19.310;2023-10-13T06:09:07;30.10;;;16.92;;
17818;SDS011;9034;50.284;19.310;2023-10-13T06:10:28;28.67;;;17.25;;
17818;SDS011;9034;50.284;19.310;2023-10-13T06:11:48;28.23;;;17.80;;
17818;SDS011;9034;50.284;19.310;2023-10-13T06:13:08;31.13;;;18.30;;
17818;SDS011;9034;50.284;19.310;2023-10-13T06:14:29;39.55;;;21.67;;
17818;SDS011;9034;50.284;19.310;2023-10-13T06:15:49;40.60;;;19.50;;
17818;SDS011;9034;50.284;19.310;2023-10-13T06:17:09;37.05;;;20.08;;
17818;SDS011;9034;50.284;19.310;2023-10-13T06:18:30;37.50;;;21.42;;
17818;SDS011;9034;50.284;19.310;2023-10-13T06:19:50;41.15;;;21.65;;
17818;SDS011;9034;50.284;19.310;2023-10-13T06:21:12;28.58;;;17.10;;
17818;SDS011;9034;50.284;19.310;2023-10-13T06:22:32;32.15;;;18.92;;
17818;SDS011;9034;50.284;19.310;2023-10-13T06:23:53;31.23;;;17.38;;
17818;SDS011;9034;50.284;19.310;2023-10-13T06:25:13;30.58;;;17.15;;
17818;SDS011;9034;50.284;19.310;2023-10-13T06:26:33;31.08;;;16.25;;
17818;SDS011;9034;50.284;19.310;2023-10-13T06:27:53;21.83;;;15.55;;
17818;SDS011;9034;50.284;19.310;2023-10-13T06:29:14;25.15;;;15.68;;
17818;SDS011;9034;50.284;19.310;2023-10-13T06:30:22;26.42;;;15.82;;
17818;SDS011;9034;50.284;19.310;2023-10-13T06:31:24;18.90;;;15.02;;
17818;SDS011;9034;50.284;19.310;2023-10-13T06:32:28;30.20;;;15.63;;
17818;SDS011;9034;50.284;19.310;2023-10-13T06:33:30;25.27;;;15.27;;
17818;SDS011;9034;50.284;19.310;2023-10-13T06:34:35;25.98;;;14.70;;
17818;SDS011;9034;50.284;19.310;2023-10-13T06:35:39;24.02;;;15.48;;
17818;SDS011;9034;50.284;19.310;2023-10-13T06:36:43;22.13;;;15.20;;
17818;SDS011;9034;50.284;19.310;2023-10-13T06:37:48;20.55;;;13.85;;
17818;SDS011;9034;50.284;19.310;2023-10-13T06:38:51;26.95;;;13.60;;
17818;SDS011;9034;50.284;19.310;2023-10-13T06:40:23;23.60;;;14.50;;
17818;SDS011;9034;50.284;19.310;2023-10-13T06:41:35;21.73;;;13.98;;
17818;SDS011;9034;50.284;19.310;2023-10-13T06:42:42;23.63;;;14.10;;
17818;SDS011;9034;50.284;19.310;2023-10-13T06:43:45;24.30;;;14.77;;
17818;SDS011;9034;50.284;19.310;2023-10-13T06:44:47;29.80;;;15.77;;
17818;SDS011;9034;50.284;19.310;2023-10-13T06:45:50;21.33;;;14.75;;
17818;SDS011;9034;50.284;19.310;2023-10-13T06:46:58;22.65;;;15.35;;
17818;SDS011;9034;50.284;19.310;2023-10-13T06:48:06;24.77;;;15.35;;
17818;SDS011;9034;50.284;19.310;2023-10-13T06:49:12;24.83;;;13.95;;
17818;SDS011;9034;50.284;19.310;2023-10-13T06:50:15;22.50;;;14.48;;
17818;SDS011;9034;50.284;19.310;2023-10-13T06:51:18;24.45;;;15.68;;